createdAt,value
2023-05-06T00:00:27.918Z,625.00
2023-05-06T00:01:27.877Z,628.00
2023-05-06T00:02:27.924Z,628.00
2023-05-06T00:03:27.981Z,629.00
2023-05-06T00:04:28.376Z,629.00
2023-05-06T00:05:27.858Z,625.00
2023-05-06T00:06:27.894Z,624.00
2023-05-06T00:07:27.899Z,626.00
2023-05-06T00:08:27.914Z,625.00
2023-05-06T00:09:27.886Z,623.00
2023-05-06T00:10:27.906Z,625.00
2023-05-06T00:11:27.870Z,626.00
2023-05-06T00:12:27.878Z,625.00
2023-05-06T00:13:27.879Z,627.00
2023-05-06T00:14:27.982Z,626.00
2023-05-06T00:15:29.209Z,627.00
2023-05-06T00:16:27.891Z,628.00
2023-05-06T00:17:27.936Z,628.00
2023-05-06T00:18:27.851Z,629.00
2023-05-06T00:19:27.858Z,630.00
2023-05-06T00:20:27.906Z,629.00
2023-05-06T00:21:27.849Z,629.00
2023-05-06T00:22:27.821Z,630.00
2023-05-06T00:23:27.832Z,628.00
2023-05-06T00:24:27.854Z,628.00
2023-05-06T00:25:27.830Z,628.00
2023-05-06T00:26:27.854Z,626.00
2023-05-06T00:27:27.815Z,626.00
2023-05-06T00:28:27.830Z,627.00
2023-05-06T00:29:27.798Z,629.00
2023-05-06T00:30:27.790Z,633.00
2023-05-06T00:31:27.839Z,634.00
2023-05-06T00:32:27.865Z,633.00
2023-05-06T00:33:27.847Z,638.00
2023-05-06T00:34:27.777Z,638.00
2023-05-06T00:35:27.755Z,635.00
2023-05-06T00:36:27.835Z,632.00
2023-05-06T00:37:27.768Z,631.00
2023-05-06T00:38:27.706Z,631.00
2023-05-06T00:39:27.780Z,629.00
2023-05-06T00:40:27.753Z,632.00
2023-05-06T00:41:27.787Z,632.00
2023-05-06T00:42:27.734Z,632.00
2023-05-06T00:43:27.724Z,630.00
2023-05-06T00:44:27.693Z,629.00
2023-05-06T00:45:27.685Z,631.00
2023-05-06T00:46:27.875Z,629.00
2023-05-06T00:47:27.683Z,629.00
2023-05-06T00:48:27.671Z,627.00
2023-05-06T00:49:27.708Z,627.00
2023-05-06T00:50:27.661Z,627.00
2023-05-06T00:51:27.637Z,629.00
2023-05-06T00:52:27.636Z,633.00
2023-05-06T00:53:27.640Z,633.00
2023-05-06T00:54:27.734Z,632.00
2023-05-06T00:55:27.655Z,629.00
2023-05-06T00:56:27.640Z,628.00
2023-05-06T00:57:27.627Z,628.00
2023-05-06T00:58:27.615Z,626.00
2023-05-06T00:59:27.595Z,626.00
2023-05-06T01:00:27.640Z,627.00
2023-05-06T01:01:27.619Z,626.00
2023-05-06T01:02:36.218Z,625.00
2023-05-06T01:03:28.653Z,624.00
2023-05-06T01:04:27.588Z,625.00
2023-05-06T01:05:27.558Z,626.00
2023-05-06T01:06:27.545Z,628.00
2023-05-06T01:07:27.551Z,629.00
2023-05-06T01:08:27.551Z,630.00
2023-05-06T01:09:27.533Z,630.00
2023-05-06T01:10:27.550Z,628.00
2023-05-06T01:11:27.559Z,630.00
2023-05-06T01:12:27.542Z,627.00
2023-05-06T01:13:28.863Z,627.00
2023-05-06T01:14:27.529Z,627.00
2023-05-06T01:15:27.473Z,625.00
2023-05-06T01:16:27.503Z,628.00
2023-05-06T01:17:27.467Z,628.00
2023-05-06T01:18:27.542Z,630.00
2023-05-06T01:19:27.466Z,632.00
2023-05-06T01:20:27.455Z,634.00
2023-05-06T01:21:27.432Z,637.00
2023-05-06T01:22:27.428Z,639.00
2023-05-06T01:23:27.425Z,639.00
2023-05-06T01:24:27.454Z,636.00
2023-05-06T01:25:27.893Z,633.00
2023-05-06T01:26:27.427Z,630.00
2023-05-06T01:27:27.463Z,630.00
2023-05-06T01:28:27.398Z,630.00
2023-05-06T01:29:27.428Z,632.00
2023-05-06T01:30:27.555Z,631.00
2023-05-06T01:31:27.411Z,631.00
2023-05-06T01:32:27.414Z,634.00
2023-05-06T01:33:27.384Z,636.00
2023-05-06T01:34:27.378Z,638.00
2023-05-06T01:35:27.399Z,639.00
2023-05-06T01:36:27.388Z,639.00
2023-05-06T01:37:27.403Z,637.00
2023-05-06T01:38:27.427Z,640.00
2023-05-06T01:39:27.395Z,640.00
2023-05-06T01:40:27.463Z,641.00
2023-05-06T01:41:27.386Z,639.00
2023-05-06T01:42:27.403Z,642.00
2023-05-06T01:43:27.452Z,637.00
2023-05-06T01:44:27.416Z,638.00
2023-05-06T01:45:27.480Z,637.00
2023-05-06T01:46:27.444Z,638.00
2023-05-06T01:47:28.370Z,639.00
2023-05-06T01:48:27.435Z,637.00
2023-05-06T01:49:27.442Z,639.00
2023-05-06T01:50:27.474Z,638.00
2023-05-06T01:51:27.417Z,642.00
2023-05-06T01:52:27.413Z,641.00
2023-05-06T01:53:27.434Z,639.00
2023-05-06T01:54:27.479Z,639.00
2023-05-06T01:55:27.506Z,644.00
2023-05-06T01:56:27.473Z,644.00
2023-05-06T01:57:27.458Z,645.00
2023-05-06T01:58:27.521Z,642.00
2023-05-06T01:59:28.938Z,642.00
2023-05-06T02:00:27.502Z,644.00
2023-05-06T02:01:27.513Z,644.00
2023-05-06T02:02:27.607Z,638.00
2023-05-06T02:03:27.653Z,640.00
2023-05-06T02:04:27.500Z,642.00
2023-05-06T02:05:27.512Z,640.00
2023-05-06T02:06:27.499Z,637.00
2023-05-06T02:07:27.508Z,634.00
2023-05-06T02:08:27.521Z,633.00
2023-05-06T02:09:27.516Z,632.00
2023-05-06T02:10:27.523Z,634.00
2023-05-06T02:11:27.499Z,637.00
2023-05-06T02:12:27.569Z,642.00
2023-05-06T02:13:27.513Z,643.00
2023-05-06T02:14:27.554Z,643.00
2023-05-06T02:15:27.509Z,643.00
2023-05-06T02:16:27.685Z,643.00
2023-05-06T02:17:27.549Z,640.00
2023-05-06T02:18:27.930Z,642.00
2023-05-06T02:19:27.532Z,643.00
2023-05-06T02:20:27.554Z,642.00
2023-05-06T02:21:28.411Z,642.00
2023-05-06T02:22:27.589Z,643.00
2023-05-06T02:23:27.551Z,643.00
2023-05-06T02:24:27.529Z,646.00
2023-05-06T02:25:27.539Z,648.00
2023-05-06T02:26:27.566Z,649.00
2023-05-06T02:27:27.606Z,646.00
2023-05-06T02:28:27.533Z,643.00
2023-05-06T02:29:27.558Z,642.00
2023-05-06T02:30:27.589Z,646.00
2023-05-06T02:31:27.620Z,646.00
2023-05-06T02:32:27.616Z,645.00
2023-05-06T02:33:27.901Z,644.00
2023-05-06T02:34:27.555Z,645.00
2023-05-06T02:35:27.544Z,647.00
2023-05-06T02:36:27.590Z,645.00
2023-05-06T02:37:27.558Z,645.00
2023-05-06T02:38:27.614Z,647.00
2023-05-06T02:39:27.555Z,647.00
2023-05-06T02:40:27.592Z,649.00
2023-05-06T02:41:27.579Z,649.00
2023-05-06T02:42:27.650Z,650.00
2023-05-06T02:43:27.699Z,650.00
2023-05-06T02:44:27.608Z,650.00
2023-05-06T02:45:27.628Z,653.00
2023-05-06T02:46:27.608Z,650.00
2023-05-06T02:47:27.685Z,650.00
2023-05-06T02:48:27.633Z,652.00
2023-05-06T02:49:27.639Z,652.00
2023-05-06T02:50:27.610Z,651.00
2023-05-06T02:51:27.606Z,649.00
2023-05-06T02:52:27.634Z,647.00
2023-05-06T02:53:27.663Z,650.00
2023-05-06T02:54:27.666Z,650.00
2023-05-06T02:55:27.681Z,648.00
2023-05-06T02:56:27.674Z,647.00
2023-05-06T02:57:27.668Z,645.00
2023-05-06T02:58:27.657Z,644.00
2023-05-06T02:59:27.651Z,644.00
2023-05-06T03:00:27.679Z,644.00
2023-05-06T03:01:27.753Z,645.00
2023-05-06T03:02:27.714Z,647.00
2023-05-06T03:03:27.680Z,650.00
2023-05-06T03:04:27.819Z,650.00
2023-05-06T03:05:27.686Z,647.00
2023-05-06T03:06:27.749Z,648.00
2023-05-06T03:07:27.700Z,649.00
2023-05-06T03:08:27.776Z,649.00
2023-05-06T03:09:27.789Z,649.00
2023-05-06T03:10:27.706Z,650.00
2023-05-06T03:11:27.729Z,650.00
2023-05-06T03:12:27.712Z,648.00
2023-05-06T03:13:27.712Z,650.00
2023-05-06T03:14:27.756Z,650.00
2023-05-06T03:15:27.764Z,651.00
2023-05-06T03:16:27.813Z,647.00
2023-05-06T03:17:27.769Z,646.00
2023-05-06T03:18:27.750Z,643.00
2023-05-06T03:19:27.766Z,644.00
2023-05-06T03:20:27.739Z,645.00
2023-05-06T03:21:27.868Z,645.00
2023-05-06T03:22:27.782Z,646.00
2023-05-06T03:23:27.845Z,647.00
2023-05-06T03:24:27.789Z,647.00
2023-05-06T03:25:27.781Z,648.00
2023-05-06T03:26:27.889Z,649.00
2023-05-06T03:27:27.776Z,646.00
2023-05-06T03:28:27.779Z,646.00
2023-05-06T03:29:27.834Z,647.00
2023-05-06T03:30:27.784Z,649.00
2023-05-06T03:31:27.844Z,647.00
2023-05-06T03:32:27.809Z,645.00
2023-05-06T03:33:27.789Z,645.00
2023-05-06T03:34:27.794Z,642.00
2023-05-06T03:35:27.822Z,641.00
2023-05-06T03:36:27.801Z,640.00
2023-05-06T03:37:27.890Z,641.00
2023-05-06T03:38:29.433Z,639.00
2023-05-06T03:39:27.854Z,639.00
2023-05-06T03:40:27.838Z,642.00
2023-05-06T03:41:27.836Z,644.00
2023-05-06T03:42:27.876Z,644.00
2023-05-06T03:43:27.926Z,646.00
2023-05-06T03:44:27.859Z,647.00
2023-05-06T03:45:27.851Z,647.00
2023-05-06T03:46:27.935Z,647.00
2023-05-06T03:47:27.957Z,646.00
2023-05-06T03:48:27.875Z,644.00
2023-05-06T03:49:27.931Z,643.00
2023-05-06T03:50:27.921Z,645.00
2023-05-06T03:51:27.916Z,645.00
2023-05-06T03:52:27.953Z,646.00
2023-05-06T03:53:28.058Z,647.00
2023-05-06T03:54:28.025Z,646.00
2023-05-06T03:55:28.079Z,647.00
2023-05-06T03:56:28.016Z,648.00
2023-05-06T03:57:28.034Z,649.00
2023-05-06T03:58:28.189Z,650.00
2023-05-06T03:59:28.072Z,651.00
2023-05-06T04:00:28.135Z,651.00
2023-05-06T04:01:28.110Z,650.00
2023-05-06T04:02:28.207Z,649.00
2023-05-06T04:03:28.243Z,646.00
2023-05-06T04:04:28.153Z,646.00
2023-05-06T04:05:28.228Z,645.00
2023-05-06T04:06:28.174Z,644.00
2023-05-06T04:07:28.180Z,645.00
2023-05-06T04:08:28.205Z,645.00
2023-05-06T04:09:28.188Z,646.00
2023-05-06T04:10:28.217Z,643.00
2023-05-06T04:11:29.707Z,639.00
2023-05-06T04:12:28.211Z,639.00
2023-05-06T04:13:28.218Z,639.00
2023-05-06T04:14:28.291Z,641.00
2023-05-06T04:15:28.258Z,643.00
2023-05-06T04:16:28.321Z,643.00
2023-05-06T04:17:28.312Z,646.00
2023-05-06T04:18:28.307Z,646.00
2023-05-06T04:19:28.276Z,646.00
2023-05-06T04:20:28.301Z,645.00
2023-05-06T04:21:28.328Z,645.00
2023-05-06T04:22:28.297Z,647.00
2023-05-06T04:23:28.335Z,648.00
2023-05-06T04:24:29.972Z,646.00
2023-05-06T04:25:28.466Z,647.00
2023-05-06T04:26:28.320Z,650.00
2023-05-06T04:27:28.339Z,651.00
2023-05-06T04:28:28.342Z,650.00
2023-05-06T04:29:28.365Z,649.00
2023-05-06T04:30:28.634Z,647.00
2023-05-06T04:31:28.449Z,645.00
2023-05-06T04:32:28.422Z,644.00
2023-05-06T04:33:28.388Z,645.00
2023-05-06T04:34:28.430Z,643.00
2023-05-06T04:35:28.393Z,645.00
2023-05-06T04:36:28.448Z,645.00
2023-05-06T04:37:28.455Z,643.00
2023-05-06T04:38:28.468Z,644.00
2023-05-06T04:39:28.388Z,641.00
2023-05-06T04:40:28.416Z,643.00
2023-05-06T04:41:28.425Z,644.00
2023-05-06T04:42:28.427Z,641.00
2023-05-06T04:43:28.449Z,643.00
2023-05-06T04:44:28.436Z,646.00
2023-05-06T04:45:28.502Z,645.00
2023-05-06T04:46:28.597Z,643.00
2023-05-06T04:47:28.457Z,642.00
2023-05-06T04:48:28.479Z,640.00
2023-05-06T04:49:28.505Z,641.00
2023-05-06T04:50:28.494Z,640.00
2023-05-06T04:51:28.457Z,640.00
2023-05-06T04:52:28.485Z,640.00
2023-05-06T04:53:28.496Z,640.00
2023-05-06T04:54:28.498Z,639.00
2023-05-06T04:55:28.497Z,639.00
2023-05-06T04:56:28.500Z,637.00
2023-05-06T04:57:28.519Z,634.00
2023-05-06T04:58:28.536Z,637.00
2023-05-06T04:59:28.548Z,637.00
2023-05-06T05:00:28.534Z,639.00
2023-05-06T05:01:28.599Z,639.00
2023-05-06T05:02:28.681Z,641.00
2023-05-06T05:03:28.660Z,640.00
2023-05-06T05:04:28.569Z,640.00
2023-05-06T05:05:28.577Z,640.00
2023-05-06T05:06:28.582Z,639.00
2023-05-06T05:07:28.603Z,640.00
2023-05-06T05:08:28.628Z,641.00
2023-05-06T05:09:28.598Z,647.00
2023-05-06T05:10:28.625Z,646.00
2023-05-06T05:11:28.646Z,646.00
2023-05-06T05:12:28.649Z,645.00
2023-05-06T05:13:28.653Z,645.00
2023-05-06T05:14:28.637Z,646.00
2023-05-06T05:15:28.706Z,643.00
2023-05-06T05:16:28.717Z,643.00
2023-05-06T05:17:28.728Z,643.00
2023-05-06T05:18:28.761Z,643.00
2023-05-06T05:19:28.723Z,640.00
2023-05-06T05:20:28.742Z,639.00
2023-05-06T05:21:28.742Z,638.00
2023-05-06T05:22:28.750Z,637.00
2023-05-06T05:23:28.763Z,636.00
2023-05-06T05:24:28.770Z,635.00
2023-05-06T05:25:28.766Z,634.00
2023-05-06T05:26:28.760Z,637.00
2023-05-06T05:27:28.789Z,635.00
2023-05-06T05:28:28.853Z,634.00
2023-05-06T05:29:28.816Z,637.00
2023-05-06T05:30:28.832Z,637.00
2023-05-06T05:31:28.814Z,637.00
2023-05-06T05:32:28.864Z,637.00
2023-05-06T05:33:28.885Z,641.00
2023-05-06T05:34:28.886Z,640.00
2023-05-06T05:35:28.874Z,639.00
2023-05-06T05:36:28.875Z,640.00
2023-05-06T05:37:28.903Z,639.00
2023-05-06T05:38:28.936Z,636.00
2023-05-06T05:39:28.969Z,637.00
2023-05-06T05:40:28.951Z,637.00
2023-05-06T05:41:28.958Z,637.00
2023-05-06T05:42:28.959Z,637.00
2023-05-06T05:43:28.970Z,638.00
2023-05-06T05:44:28.959Z,638.00
2023-05-06T05:45:29.005Z,639.00
2023-05-06T05:46:28.995Z,639.00
2023-05-06T05:47:29.052Z,637.00
2023-05-06T05:48:29.008Z,635.00
2023-05-06T05:49:29.013Z,635.00
2023-05-06T05:50:29.170Z,636.00
2023-05-06T05:51:29.034Z,635.00
2023-05-06T05:52:29.027Z,635.00
2023-05-06T05:53:29.056Z,635.00
2023-05-06T05:54:29.113Z,633.00
2023-05-06T05:55:29.545Z,633.00
2023-05-06T05:56:29.089Z,633.00
2023-05-06T05:57:29.108Z,634.00
2023-05-06T05:58:29.181Z,635.00
2023-05-06T05:59:29.138Z,638.00
2023-05-06T06:00:29.153Z,639.00
2023-05-06T06:01:29.270Z,638.00
2023-05-06T06:02:29.214Z,638.00
2023-05-06T06:03:29.342Z,635.00
2023-05-06T06:04:29.207Z,633.00
2023-05-06T06:05:29.520Z,634.00
2023-05-06T06:06:29.306Z,636.00
2023-05-06T06:07:29.174Z,634.00
2023-05-06T06:08:29.199Z,632.00
2023-05-06T06:09:29.196Z,631.00
2023-05-06T06:10:29.296Z,631.00
2023-05-06T06:11:29.229Z,632.00
2023-05-06T06:12:29.225Z,631.00
2023-05-06T06:13:29.325Z,633.00
2023-05-06T06:14:29.239Z,634.00
2023-05-06T06:15:29.279Z,636.00
2023-05-06T06:16:29.271Z,639.00
2023-05-06T06:17:29.271Z,641.00
2023-05-06T06:18:29.275Z,637.00
2023-05-06T06:19:29.258Z,636.00
2023-05-06T06:20:29.348Z,637.00
2023-05-06T06:21:29.322Z,637.00
2023-05-06T06:22:29.384Z,637.00
2023-05-06T06:23:29.326Z,638.00
2023-05-06T06:24:29.327Z,638.00
2023-05-06T06:25:29.331Z,636.00
2023-05-06T06:26:29.324Z,635.00
2023-05-06T06:27:29.337Z,637.00
2023-05-06T06:28:29.360Z,637.00
2023-05-06T06:29:29.358Z,636.00
2023-05-06T06:30:29.387Z,636.00
2023-05-06T06:31:29.500Z,637.00
2023-05-06T06:32:29.474Z,637.00
2023-05-06T06:33:29.444Z,638.00
2023-05-06T06:34:29.448Z,637.00
2023-05-06T06:35:29.470Z,632.00
2023-05-06T06:36:29.458Z,635.00
2023-05-06T06:37:29.499Z,638.00
2023-05-06T06:38:29.531Z,637.00
2023-05-06T06:39:29.493Z,634.00
2023-05-06T06:40:29.520Z,634.00
2023-05-06T06:41:29.504Z,634.00
2023-05-06T06:42:29.528Z,634.00
2023-05-06T06:43:29.592Z,635.00
2023-05-06T06:44:29.568Z,634.00
2023-05-06T06:45:29.580Z,635.00
2023-05-06T06:46:29.552Z,631.00
2023-05-06T06:47:29.593Z,631.00
2023-05-06T06:48:30.564Z,634.00
2023-05-06T06:49:29.590Z,636.00
2023-05-06T06:50:29.673Z,640.00
2023-05-06T06:51:29.629Z,639.00
2023-05-06T06:52:29.627Z,638.00
2023-05-06T06:53:29.670Z,637.00
2023-05-06T06:54:29.735Z,633.00
2023-05-06T06:55:30.002Z,634.00
2023-05-06T06:56:29.690Z,631.00
2023-05-06T06:57:29.725Z,630.00
2023-05-06T06:58:29.758Z,629.00
2023-05-06T06:59:29.708Z,630.00
2023-05-06T07:00:29.743Z,628.00
2023-05-06T07:01:30.564Z,627.00
2023-05-06T07:02:29.786Z,629.00
2023-05-06T07:03:29.785Z,630.00
2023-05-06T07:04:29.875Z,632.00
2023-05-06T07:05:29.820Z,630.00
2023-05-06T07:06:29.820Z,631.00
2023-05-06T07:07:29.856Z,635.00
2023-05-06T07:08:29.909Z,631.00
2023-05-06T07:09:29.909Z,629.00
2023-05-06T07:10:29.970Z,629.00
2023-05-06T07:11:29.894Z,632.00
2023-05-06T07:12:29.909Z,634.00
2023-05-06T07:13:29.929Z,631.00
2023-05-06T07:14:29.931Z,631.00
2023-05-06T07:15:29.965Z,628.00
2023-05-06T07:16:29.998Z,627.00
2023-05-06T07:17:29.957Z,628.00
2023-05-06T07:18:29.968Z,629.00
2023-05-06T07:19:29.983Z,627.00
2023-05-06T07:20:29.998Z,628.00
2023-05-06T07:21:30.018Z,626.00
2023-05-06T07:22:30.025Z,631.00
2023-05-06T07:23:32.031Z,632.00
2023-05-06T07:24:30.032Z,633.00
2023-05-06T07:25:30.046Z,632.00
2023-05-06T07:26:30.055Z,632.00
2023-05-06T07:27:30.066Z,632.00
2023-05-06T07:28:30.098Z,635.00
2023-05-06T07:29:30.100Z,635.00
2023-05-06T07:30:30.129Z,634.00
2023-05-06T07:31:30.167Z,637.00
2023-05-06T07:32:30.195Z,634.00
2023-05-06T07:33:30.198Z,635.00
2023-05-06T07:34:30.224Z,636.00
2023-05-06T07:35:30.219Z,636.00
2023-05-06T07:36:30.208Z,634.00
2023-05-06T07:37:30.237Z,635.00
2023-05-06T07:38:30.255Z,634.00
2023-05-06T07:39:30.247Z,634.00
2023-05-06T07:40:30.271Z,631.00
2023-05-06T07:41:30.245Z,636.00
2023-05-06T07:42:30.256Z,637.00
2023-05-06T07:43:30.289Z,635.00
2023-05-06T07:44:30.272Z,637.00
2023-05-06T07:45:30.291Z,637.00
2023-05-06T07:46:30.485Z,639.00
2023-05-06T07:47:30.326Z,637.00
2023-05-06T07:48:30.360Z,637.00
2023-05-06T07:49:30.310Z,637.00
2023-05-06T07:50:30.315Z,635.00
2023-05-06T07:51:30.328Z,634.00
2023-05-06T07:52:30.336Z,635.00
2023-05-06T07:53:30.361Z,633.00
2023-05-06T07:54:30.342Z,632.00
2023-05-06T07:55:30.338Z,630.00
2023-05-06T07:56:30.347Z,629.00
2023-05-06T07:57:30.366Z,630.00
2023-05-06T07:58:30.455Z,628.00
2023-05-06T07:59:30.374Z,627.00
2023-05-06T08:00:30.401Z,627.00
2023-05-06T08:01:30.386Z,627.00
2023-05-06T08:02:30.451Z,628.00
2023-05-06T08:03:30.546Z,629.00
2023-05-06T08:04:30.490Z,628.00
2023-05-06T08:05:30.457Z,630.00
2023-05-06T08:06:30.451Z,628.00
2023-05-06T08:07:30.426Z,628.00
2023-05-06T08:08:30.428Z,629.00
2023-05-06T08:09:30.460Z,632.00
2023-05-06T08:10:30.465Z,631.00
2023-05-06T08:11:30.503Z,631.00
2023-05-06T08:12:30.481Z,630.00
2023-05-06T08:13:30.477Z,628.00
2023-05-06T08:14:30.542Z,629.00
2023-05-06T08:15:30.489Z,628.00
2023-05-06T08:16:30.598Z,627.00
2023-05-06T08:17:30.538Z,626.00
2023-05-06T08:18:30.568Z,625.00
2023-05-06T08:19:30.550Z,626.00
2023-05-06T08:20:30.540Z,626.00
2023-05-06T08:21:30.556Z,630.00
2023-05-06T08:22:30.555Z,632.00
2023-05-06T08:23:30.623Z,633.00
2023-05-06T08:24:30.589Z,632.00
2023-05-06T08:25:30.602Z,629.00
2023-05-06T08:26:30.651Z,628.00
2023-05-06T08:27:30.594Z,626.00
2023-05-06T08:28:30.611Z,626.00
2023-05-06T08:29:30.625Z,625.00
2023-05-06T08:30:30.705Z,624.00
2023-05-06T08:31:30.737Z,624.00
2023-05-06T08:32:30.735Z,625.00
2023-05-06T08:33:30.668Z,624.00
2023-05-06T08:34:30.704Z,625.00
2023-05-06T08:35:30.704Z,624.00
2023-05-06T08:36:30.713Z,624.00
2023-05-06T08:37:30.746Z,623.00
2023-05-06T08:38:30.752Z,619.00
2023-05-06T08:39:30.845Z,623.00
2023-05-06T08:40:30.783Z,623.00
2023-05-06T08:41:30.757Z,623.00
2023-05-06T08:42:30.780Z,624.00
2023-05-06T08:43:30.910Z,622.00
2023-05-06T08:44:30.807Z,625.00
2023-05-06T08:45:30.854Z,624.00
2023-05-06T08:46:30.963Z,628.00
2023-05-06T08:47:30.821Z,627.00
2023-05-06T08:48:30.832Z,627.00
2023-05-06T08:49:30.806Z,627.00
2023-05-06T08:50:30.804Z,623.00
2023-05-06T08:51:30.806Z,626.00
2023-05-06T08:52:30.905Z,627.00
2023-05-06T08:53:34.066Z,625.00
2023-05-06T08:54:30.833Z,622.00
2023-05-06T08:55:30.812Z,620.00
2023-05-06T08:56:30.799Z,619.00
2023-05-06T08:57:30.799Z,619.00
2023-05-06T08:58:30.828Z,620.00
2023-05-06T08:59:30.808Z,621.00
2023-05-06T09:00:30.783Z,619.00
2023-05-06T09:01:30.822Z,619.00
2023-05-06T09:02:31.018Z,615.00
2023-05-06T09:03:31.009Z,619.00
2023-05-06T09:04:30.760Z,616.00
2023-05-06T09:05:30.755Z,615.00
2023-05-06T09:06:30.786Z,615.00
2023-05-06T09:07:30.770Z,613.00
2023-05-06T09:08:30.729Z,613.00
2023-05-06T09:09:30.752Z,610.00
2023-05-06T09:10:30.826Z,611.00
2023-05-06T09:11:30.783Z,611.00
2023-05-06T09:12:30.699Z,611.00
2023-05-06T09:13:30.709Z,613.00
2023-05-06T09:14:30.694Z,616.00
2023-05-06T09:15:30.688Z,619.00
2023-05-06T09:16:30.746Z,618.00
2023-05-06T09:17:30.671Z,616.00
2023-05-06T09:18:30.742Z,618.00
2023-05-06T09:19:30.682Z,616.00
2023-05-06T09:20:30.667Z,617.00
2023-05-06T09:21:30.672Z,616.00
2023-05-06T09:22:30.669Z,613.00
2023-05-06T09:23:30.651Z,611.00
2023-05-06T09:24:30.643Z,609.00
2023-05-06T09:25:30.646Z,609.00
2023-05-06T09:26:30.630Z,609.00
2023-05-06T09:27:30.612Z,608.00
2023-05-06T09:28:30.633Z,609.00
2023-05-06T09:29:30.623Z,608.00
2023-05-06T09:30:30.584Z,609.00
2023-05-06T09:31:30.649Z,610.00
2023-05-06T09:32:30.576Z,611.00
2023-05-06T09:33:30.576Z,611.00
2023-05-06T09:34:30.699Z,613.00
2023-05-06T09:35:30.554Z,612.00
2023-05-06T09:36:30.564Z,611.00
2023-05-06T09:37:30.530Z,607.00
2023-05-06T09:38:30.536Z,604.00
2023-05-06T09:39:30.545Z,601.00
2023-05-06T09:40:30.525Z,600.00
2023-05-06T09:41:30.519Z,600.00
2023-05-06T09:42:30.523Z,600.00
2023-05-06T09:43:30.530Z,597.00
2023-05-06T09:44:30.478Z,597.00
2023-05-06T09:45:30.493Z,599.00
2023-05-06T09:46:30.515Z,596.00
2023-05-06T09:47:30.495Z,595.00
2023-05-06T09:48:30.583Z,595.00
2023-05-06T09:49:30.470Z,592.00
2023-05-06T09:50:30.532Z,592.00
2023-05-06T09:51:30.480Z,591.00
2023-05-06T09:52:30.464Z,590.00
2023-05-06T09:53:30.488Z,590.00
2023-05-06T09:54:30.447Z,589.00
2023-05-06T09:55:30.528Z,587.00
2023-05-06T09:56:30.450Z,584.00
2023-05-06T09:57:30.428Z,585.00
2023-05-06T09:58:30.423Z,585.00
2023-05-06T09:59:30.409Z,581.00
2023-05-06T10:00:30.411Z,581.00
2023-05-06T10:01:36.588Z,578.00
2023-05-06T10:02:31.548Z,577.00
2023-05-06T10:03:30.477Z,578.00
2023-05-06T10:04:30.588Z,578.00
2023-05-06T10:05:30.542Z,580.00
2023-05-06T10:06:30.444Z,581.00
2023-05-06T10:07:30.360Z,583.00
2023-05-06T10:08:30.361Z,584.00
2023-05-06T10:09:30.352Z,583.00
2023-05-06T10:10:30.346Z,586.00
2023-05-06T10:11:30.348Z,587.00
2023-05-06T10:12:30.348Z,586.00
2023-05-06T10:13:30.347Z,584.00
2023-05-06T10:14:30.330Z,583.00
2023-05-06T10:15:30.300Z,583.00
2023-05-06T10:16:30.395Z,581.00
2023-05-06T10:17:30.313Z,578.00
2023-05-06T10:18:30.294Z,579.00
2023-05-06T10:19:30.286Z,580.00
2023-05-06T10:20:30.299Z,580.00
2023-05-06T10:21:30.303Z,579.00
2023-05-06T10:22:30.337Z,580.00
2023-05-06T10:23:30.268Z,579.00
2023-05-06T10:24:30.293Z,577.00
2023-05-06T10:25:30.331Z,576.00
2023-05-06T10:26:30.249Z,577.00
2023-05-06T10:27:30.247Z,581.00
2023-05-06T10:28:31.034Z,580.00
2023-05-06T10:29:30.208Z,580.00
2023-05-06T10:30:30.216Z,575.00
2023-05-06T10:31:30.293Z,577.00
2023-05-06T10:32:30.343Z,577.00
2023-05-06T10:33:30.303Z,576.00
2023-05-06T10:34:30.370Z,578.00
2023-05-06T10:35:30.321Z,579.00
2023-05-06T10:36:30.324Z,578.00
2023-05-06T10:37:30.332Z,579.00
2023-05-06T10:38:30.421Z,581.00
2023-05-06T10:39:30.456Z,579.00
2023-05-06T10:40:30.400Z,576.00
2023-05-06T10:41:30.463Z,578.00
2023-05-06T10:42:30.395Z,579.00
2023-05-06T10:43:30.419Z,578.00
2023-05-06T10:44:30.430Z,580.00
2023-05-06T10:45:30.465Z,578.00
2023-05-06T10:46:30.437Z,580.00
2023-05-06T10:47:30.471Z,578.00
2023-05-06T10:48:30.444Z,578.00
2023-05-06T10:49:30.482Z,579.00
2023-05-06T10:50:30.450Z,582.00
2023-05-06T10:51:30.452Z,584.00
2023-05-06T10:52:30.484Z,582.00
2023-05-06T10:53:30.570Z,579.00
2023-05-06T10:54:30.477Z,577.00
2023-05-06T10:55:30.481Z,580.00
2023-05-06T10:56:30.500Z,579.00
2023-05-06T10:57:30.480Z,581.00
2023-05-06T10:58:30.549Z,583.00
2023-05-06T10:59:30.498Z,588.00
2023-05-06T11:00:30.494Z,589.00
2023-05-06T11:01:30.585Z,590.00
2023-05-06T11:02:30.561Z,588.00
2023-05-06T11:03:30.682Z,587.00
2023-05-06T11:04:30.535Z,586.00
2023-05-06T11:05:30.563Z,588.00
2023-05-06T11:06:30.562Z,590.00
2023-05-06T11:07:30.555Z,590.00
2023-05-06T11:08:30.569Z,589.00
2023-05-06T11:09:30.595Z,587.00
2023-05-06T11:10:30.655Z,586.00
2023-05-06T11:11:30.599Z,585.00
2023-05-06T11:12:30.602Z,586.00
2023-05-06T11:13:30.774Z,584.00
2023-05-06T11:14:30.676Z,583.00
2023-05-06T11:15:30.599Z,582.00
2023-05-06T11:16:30.599Z,583.00
2023-05-06T11:17:30.660Z,582.00
2023-05-06T11:18:30.621Z,582.00
2023-05-06T11:19:30.666Z,580.00
2023-05-06T11:20:30.642Z,577.00
2023-05-06T11:21:30.640Z,578.00
2023-05-06T11:22:30.662Z,581.00
2023-05-06T11:23:30.665Z,582.00
2023-05-06T11:24:30.699Z,584.00
2023-05-06T11:25:30.689Z,581.00
2023-05-06T11:26:30.710Z,584.00
2023-05-06T11:27:30.736Z,581.00
2023-05-06T11:28:30.764Z,580.00
2023-05-06T11:29:30.741Z,579.00
2023-05-06T11:30:30.706Z,581.00
2023-05-06T11:31:30.820Z,582.00
2023-05-06T11:32:30.738Z,581.00
2023-05-06T11:33:30.733Z,583.00
2023-05-06T11:34:30.759Z,582.00
2023-05-06T11:35:30.759Z,581.00
2023-05-06T11:36:30.763Z,580.00
2023-05-06T11:37:30.818Z,581.00
2023-05-06T11:38:30.786Z,581.00
2023-05-06T11:39:30.993Z,582.00
2023-05-06T11:40:30.793Z,583.00
2023-05-06T11:41:30.830Z,583.00
2023-05-06T11:42:30.861Z,584.00
2023-05-06T11:43:30.822Z,586.00
2023-05-06T11:44:30.839Z,588.00
2023-05-06T11:45:30.813Z,589.00
2023-05-06T11:46:30.845Z,590.00
2023-05-06T11:47:30.905Z,589.00
2023-05-06T11:48:30.856Z,588.00
2023-05-06T11:49:30.882Z,587.00
2023-05-06T11:50:30.856Z,585.00
2023-05-06T11:51:30.864Z,588.00
2023-05-06T11:52:30.842Z,587.00
2023-05-06T11:53:30.903Z,588.00
2023-05-06T11:54:30.856Z,590.00
2023-05-06T11:55:30.902Z,590.00
2023-05-06T11:56:30.911Z,588.00
2023-05-06T11:57:30.923Z,589.00
2023-05-06T11:58:30.998Z,596.00
2023-05-06T11:59:30.957Z,593.00
2023-05-06T12:00:30.964Z,590.00
2023-05-06T12:01:31.001Z,587.00
2023-05-06T12:02:31.110Z,585.00
2023-05-06T12:03:31.170Z,588.00
2023-05-06T12:04:31.056Z,588.00
2023-05-06T12:05:30.976Z,593.00
2023-05-06T12:06:30.993Z,591.00
2023-05-06T12:07:31.003Z,589.00
2023-05-06T12:08:31.035Z,589.00
2023-05-06T12:09:30.989Z,590.00
2023-05-06T12:10:30.994Z,592.00
2023-05-06T12:11:31.031Z,587.00
2023-05-06T12:12:31.005Z,586.00
2023-05-06T12:13:31.046Z,584.00
2023-05-06T12:14:31.046Z,585.00
2023-05-06T12:15:31.007Z,585.00
2023-05-06T12:16:31.067Z,587.00
2023-05-06T12:17:31.083Z,587.00
2023-05-06T12:18:31.007Z,583.00
2023-05-06T12:19:31.125Z,587.00
2023-05-06T12:20:31.049Z,589.00
2023-05-06T12:21:31.017Z,592.00
2023-05-06T12:22:31.074Z,593.00
2023-05-06T12:23:31.100Z,591.00
2023-05-06T12:24:31.037Z,589.00
2023-05-06T12:25:31.036Z,587.00
2023-05-06T12:26:31.033Z,585.00
2023-05-06T12:27:31.025Z,581.00
2023-05-06T12:28:31.076Z,582.00